createdAt,value
2019-03-06T00:00:08.725Z,96769.44
2019-03-06T00:02:45.473Z,96778.78
2019-03-06T00:05:16.742Z,96787.31
2019-03-06T00:07:47.650Z,96780.70
2019-03-06T00:10:23.895Z,96776.20
2019-03-06T00:12:54.365Z,96772.45
2019-03-06T00:15:25.498Z,96763.93
2019-03-06T00:17:55.767Z,96768.91
2019-03-06T00:20:26.035Z,96775.06
2019-03-06T00:22:56.561Z,96766.20
2019-03-06T00:25:27.193Z,96773.88
2019-03-06T00:27:57.496Z,96768.07
2019-03-06T00:30:28.261Z,96762.19
2019-03-06T00:32:58.814Z,96763.95
2019-03-06T00:35:32.865Z,96766.70
2019-03-06T00:38:03.646Z,96761.84
2019-03-06T00:41:02.999Z,96765.74
2019-03-06T00:43:33.387Z,96766.20
2019-03-06T00:46:04.313Z,96765.39
2019-03-06T00:48:35.089Z,96772.13
2019-03-06T00:51:05.705Z,96768.00
2019-03-06T00:53:36.287Z,96764.22
2019-03-06T00:56:06.491Z,96772.13
2019-03-06T00:58:36.913Z,96774.73
2019-03-06T01:01:07.106Z,96769.19
2019-03-06T01:03:37.738Z,96769.19
2019-03-06T01:06:08.583Z,96776.14
2019-03-06T01:08:39.801Z,96778.16
2019-03-06T01:11:09.974Z,96784.05
2019-03-06T01:13:39.951Z,96786.88
2019-03-06T01:16:10.534Z,96775.80
2019-03-06T01:18:40.924Z,96776.60
2019-03-06T01:21:12.149Z,96774.84
2019-03-06T01:23:42.704Z,96772.59
2019-03-06T01:26:13.546Z,96783.70
2019-03-06T01:28:43.977Z,96777.20
2019-03-06T01:31:14.399Z,96768.80
2019-03-06T01:34:23.643Z,96780.38
2019-03-06T01:37:09.347Z,96784.97
2019-03-06T01:40:08.130Z,96781.07
2019-03-06T01:42:51.381Z,96780.03
2019-03-06T01:45:21.458Z,96783.44
2019-03-06T01:47:51.897Z,96791.00
2019-03-06T01:50:22.795Z,96788.41
2019-03-06T01:52:53.267Z,96794.45
2019-03-06T01:55:23.684Z,96787.84
2019-03-06T01:57:54.002Z,96790.67
2019-03-06T02:00:24.781Z,96791.63
2019-03-06T02:02:55.647Z,96792.57
2019-03-06T02:05:26.714Z,96785.38
2019-03-06T02:07:57.554Z,96797.18
2019-03-06T02:10:28.750Z,96793.77
2019-03-06T02:12:59.429Z,96792.56
2019-03-06T02:15:29.845Z,96797.41
2019-03-06T02:18:00.459Z,96795.27
2019-03-06T02:20:30.951Z,96803.20
2019-03-06T02:23:01.087Z,96799.19
2019-03-06T02:25:31.413Z,96803.88
2019-03-06T02:28:01.799Z,96804.00
2019-03-06T02:30:32.010Z,96818.27
2019-03-06T02:33:01.420Z,96810.92
2019-03-06T02:35:31.707Z,96812.81
2019-03-06T02:38:01.187Z,96818.22
2019-03-06T02:40:30.445Z,96817.88
2019-03-06T02:43:00.205Z,96815.84
2019-03-06T02:45:29.949Z,96826.83
2019-03-06T02:47:59.900Z,96826.48
2019-03-06T02:50:29.325Z,96825.75
2019-03-06T02:52:58.447Z,96827.75
2019-03-06T02:55:27.406Z,96823.13
2019-03-06T02:58:18.749Z,96825.48
2019-03-06T03:01:22.231Z,96826.78
2019-03-06T03:04:04.929Z,96833.86
2019-03-06T03:06:39.702Z,96833.73
2019-03-06T03:09:16.069Z,96836.33
2019-03-06T03:11:46.174Z,96846.10
2019-03-06T03:14:16.378Z,96849.97
2019-03-06T03:16:46.478Z,96854.45
2019-03-06T03:19:16.583Z,96855.02
2019-03-06T03:21:46.709Z,96865.88
2019-03-06T03:24:16.720Z,96865.53
2019-03-06T03:26:46.664Z,96875.66
2019-03-06T03:29:16.953Z,96878.01
2019-03-06T03:31:46.935Z,96892.13
2019-03-06T03:34:17.464Z,96883.90
2019-03-06T03:36:48.588Z,96886.14
2019-03-06T03:39:18.786Z,96889.65
2019-03-06T03:41:49.352Z,96907.09
2019-03-06T03:44:19.934Z,96915.55
2019-03-06T03:46:50.302Z,96919.57
2019-03-06T03:49:20.260Z,96923.08
2019-03-06T03:51:50.280Z,96921.67
2019-03-06T03:54:20.498Z,96938.78
2019-03-06T03:56:50.577Z,96959.63
2019-03-06T03:59:20.590Z,96981.41
2019-03-06T04:01:50.836Z,96981.70
2019-03-06T04:04:21.439Z,97010.49
2019-03-06T04:06:52.227Z,97016.39
2019-03-06T04:09:23.891Z,97029.48
2019-03-06T04:11:54.327Z,97048.86
2019-03-06T04:14:24.938Z,97078.12
2019-03-06T04:16:55.546Z,97079.50
2019-03-06T04:19:27.761Z,97091.16
2019-03-06T04:21:58.977Z,97097.60
2019-03-06T04:24:29.629Z,97111.63
2019-03-06T04:27:00.005Z,97110.05
2019-03-06T04:29:30.938Z,97154.05
2019-03-06T04:32:01.344Z,97146.03
2019-03-06T04:34:31.597Z,97153.81
2019-03-06T04:37:03.846Z,97177.39
2019-03-06T04:39:34.302Z,97190.38
2019-03-06T04:42:04.800Z,97200.50
2019-03-06T04:44:34.955Z,97207.48
2019-03-06T04:47:06.287Z,97224.91
2019-03-06T04:49:37.209Z,97239.45
2019-03-06T04:52:07.493Z,97244.70
2019-03-06T04:54:39.044Z,97258.27
2019-03-06T04:57:10.977Z,97269.64
2019-03-06T04:59:42.261Z,97285.00
2019-03-06T05:02:13.655Z,97312.31
2019-03-06T05:04:44.844Z,97310.80
2019-03-06T05:07:15.321Z,97325.70
2019-03-06T05:09:45.562Z,97341.72
2019-03-06T05:12:16.125Z,97345.76
2019-03-06T05:14:46.673Z,97357.75
2019-03-06T05:17:26.426Z,97378.97
2019-03-06T05:19:58.422Z,97401.66
2019-03-06T05:22:28.998Z,97408.68
2019-03-06T05:24:59.920Z,97434.20
2019-03-06T05:27:30.889Z,97428.08
2019-03-06T05:30:03.391Z,97460.12
2019-03-06T05:32:36.360Z,97460.23
2019-03-06T05:35:39.180Z,97476.58
2019-03-06T05:38:34.114Z,97484.45
2019-03-06T05:41:03.750Z,97488.42
2019-03-06T05:43:35.086Z,97495.55
2019-03-06T05:46:06.167Z,97506.43
2019-03-06T05:48:37.444Z,97524.44
2019-03-06T05:51:08.100Z,97530.55
2019-03-06T05:53:39.761Z,97542.81
2019-03-06T05:56:10.482Z,97541.97
2019-03-06T05:58:40.975Z,97546.82
2019-03-06T06:01:11.569Z,97570.48
2019-03-06T06:03:42.259Z,97574.84
2019-03-06T06:06:12.859Z,97573.50
2019-03-06T06:08:43.497Z,97581.33
2019-03-06T06:11:13.985Z,97603.56
2019-03-06T06:13:48.261Z,97594.72
2019-03-06T06:16:22.389Z,97613.30
2019-03-06T06:18:53.009Z,97623.44
2019-03-06T06:21:53.131Z,97628.58
2019-03-06T06:24:26.564Z,97626.53
2019-03-06T06:26:58.945Z,97652.64
2019-03-06T06:29:31.590Z,97663.73
2019-03-06T06:32:02.288Z,97682.01
2019-03-06T06:34:32.896Z,97681.69
2019-03-06T06:37:03.735Z,97681.89
2019-03-06T06:39:38.355Z,97688.38
2019-03-06T06:42:09.836Z,97701.67
2019-03-06T06:44:40.381Z,97733.39
2019-03-06T06:47:10.813Z,97732.52
2019-03-06T06:49:42.769Z,97749.73
2019-03-06T06:52:46.311Z,97753.44
2019-03-06T06:55:55.571Z,97744.22
2019-03-06T06:59:03.540Z,97783.78
2019-03-06T07:02:14.446Z,97792.09
2019-03-06T07:05:22.036Z,97793.65
2019-03-06T07:08:08.845Z,97805.53
2019-03-06T07:10:47.256Z,97825.95
2019-03-06T07:13:29.825Z,97853.88
2019-03-06T07:16:21.900Z,97846.33
2019-03-06T07:19:15.340Z,97871.31
2019-03-06T07:22:21.068Z,97873.72
2019-03-06T07:25:17.675Z,97879.39
2019-03-06T07:28:14.163Z,97914.44
2019-03-06T07:31:07.306Z,97921.67
2019-03-06T07:33:50.923Z,97925.12
2019-03-06T07:36:43.005Z,97938.37
2019-03-06T07:39:25.346Z,97948.86
2019-03-06T07:42:25.525Z,97976.11
2019-03-06T07:46:06.034Z,97958.67
2019-03-06T07:48:57.975Z,97977.28
2019-03-06T07:52:00.414Z,97991.47
2019-03-06T07:54:39.167Z,98011.55
2019-03-06T07:57:38.157Z,98002.17
2019-03-06T08:00:17.557Z,98015.00
2019-03-06T08:03:21.229Z,98029.28
2019-03-06T08:05:52.018Z,98053.58
2019-03-06T08:08:23.342Z,98057.19
2019-03-06T08:10:54.946Z,98042.99
2019-03-06T08:13:47.160Z,98056.68
2019-03-06T08:16:28.715Z,98080.81
2019-03-06T08:19:13.225Z,98081.21
2019-03-06T08:21:53.613Z,98073.91
2019-03-06T08:24:40.192Z,98100.45
2019-03-06T08:27:11.441Z,98096.61
2019-03-06T08:29:43.860Z,98105.36
2019-03-06T08:32:22.380Z,98115.55
2019-03-06T08:34:53.537Z,98122.67
2019-03-06T08:37:24.331Z,98138.69
2019-03-06T08:39:55.309Z,98134.72
2019-03-06T08:42:25.876Z,98147.69
2019-03-06T08:44:56.465Z,98161.02
2019-03-06T08:47:47.557Z,98176.42
2019-03-06T08:50:35.054Z,98191.11
2019-03-06T08:53:36.108Z,98207.28
2019-03-06T08:56:23.052Z,98202.25
2019-03-06T08:59:02.675Z,98214.44
2019-03-06T09:02:00.702Z,98238.45
2019-03-06T09:04:36.673Z,98236.56
2019-03-06T09:07:35.514Z,98237.50
2019-03-06T09:10:28.669Z,98251.02
2019-03-06T09:13:21.960Z,98265.33
2019-03-06T09:16:27.931Z,98263.75
2019-03-06T09:19:16.715Z,98298.28
2019-03-06T09:21:55.968Z,98309.72
2019-03-06T09:24:44.244Z,98298.28
2019-03-06T09:30:36.957Z,98328.11
2019-03-06T09:33:12.811Z,98329.92
2019-03-06T09:39:30.545Z,98349.22
2019-03-06T09:42:34.609Z,98351.62
2019-03-06T09:45:32.723Z,98347.05
2019-03-06T09:48:27.918Z,98366.30
2019-03-06T09:51:18.659Z,98385.09
2019-03-06T09:54:04.721Z,98393.23
2019-03-06T09:57:04.846Z,98403.66
2019-03-06T09:59:55.552Z,98406.13
2019-03-06T10:03:00.819Z,98427.45
2019-03-06T10:05:42.121Z,98437.34
2019-03-06T10:08:31.455Z,98451.45
2019-03-06T10:11:20.120Z,98451.34
2019-03-06T10:14:23.477Z,98454.22
2019-03-06T10:17:00.258Z,98468.05
2019-03-06T10:19:53.403Z,98488.25
2019-03-06T10:22:24.699Z,98503.30
2019-03-06T10:28:06.187Z,98498.33
2019-03-06T10:30:33.769Z,98523.77
2019-03-06T10:33:06.349Z,98530.63
2019-03-06T10:35:39.741Z,98530.36
2019-03-06T10:38:16.510Z,98541.50
2019-03-06T10:40:44.286Z,98541.34
2019-03-06T10:43:19.359Z,98563.73
2019-03-06T10:45:50.839Z,98566.73
2019-03-06T10:48:25.746Z,98569.59
2019-03-06T10:50:56.227Z,98574.28
2019-03-06T10:53:29.928Z,98589.22
2019-03-06T10:56:01.839Z,98587.92
2019-03-06T10:58:35.065Z,98597.87
2019-03-06T11:01:07.645Z,98599.91
2019-03-06T11:03:47.041Z,98611.38
2019-03-06T11:06:19.382Z,98621.99
2019-03-06T11:08:50.786Z,98627.45
2019-03-06T11:11:21.904Z,98636.05
2019-03-06T11:13:53.922Z,98644.78
2019-03-06T11:16:25.268Z,98638.43
2019-03-06T11:18:56.854Z,98660.09
2019-03-06T11:21:28.627Z,98665.99
2019-03-06T11:24:00.879Z,98668.41
2019-03-06T11:26:34.044Z,98684.73
2019-03-06T11:29:06.884Z,98678.53
2019-03-06T11:31:41.640Z,98682.34
2019-03-06T11:34:16.033Z,98715.73
2019-03-06T11:36:55.218Z,98714.88
2019-03-06T11:39:28.816Z,98709.39
2019-03-06T11:42:02.559Z,98738.91
2019-03-06T11:44:35.387Z,98730.67
2019-03-06T11:47:06.754Z,98751.48
2019-03-06T11:49:37.395Z,98768.03
2019-03-06T11:52:11.223Z,98746.09
2019-03-06T11:54:42.829Z,98751.47
2019-03-06T11:57:16.067Z,98756.86
2019-03-06T11:59:47.351Z,98749.48
2019-03-06T12:02:18.880Z,98761.47
2019-03-06T12:04:50.627Z,98786.30
2019-03-06T12:07:22.680Z,98782.05
2019-03-06T12:09:55.983Z,98787.41
2019-03-06T12:12:26.921Z,98793.30
2019-03-06T12:14:57.655Z,98795.13
2019-03-06T12:17:27.895Z,98795.86
2019-03-06T12:20:07.542Z,98801.59
2019-03-06T12:22:32.468Z,98813.57
2019-03-06T12:25:06.073Z,98815.17
2019-03-06T12:27:38.064Z,98836.44
2019-03-06T12:30:10.156Z,98840.97
2019-03-06T12:32:42.460Z,98852.00
2019-03-06T12:35:13.242Z,98853.98
2019-03-06T12:37:47.143Z,98867.65
2019-03-06T12:40:17.423Z,98870.52
2019-03-06T12:42:48.074Z,98877.58
2019-03-06T12:45:21.499Z,98879.55
2019-03-06T12:47:55.386Z,98898.08
2019-03-06T12:50:26.526Z,98911.19
2019-03-06T12:52:58.763Z,98900.48
2019-03-06T12:55:29.473Z,98904.89
2019-03-06T12:58:00.209Z,98932.80
2019-03-06T13:00:31.019Z,98929.98
2019-03-06T13:03:02.902Z,98943.49
2019-03-06T13:05:35.409Z,98938.09
2019-03-06T13:08:05.647Z,98932.25
2019-03-06T13:10:36.378Z,98935.23
2019-03-06T13:13:07.947Z,98952.25
2019-03-06T13:15:38.138Z,98954.70
2019-03-06T13:18:11.000Z,98961.80
2019-03-06T13:20:42.195Z,98969.16
2019-03-06T13:23:12.565Z,98999.53
2019-03-06T13:25:43.396Z,98990.20
2019-03-06T13:28:15.059Z,99004.23
2019-03-06T13:30:49.191Z,99026.13
2019-03-06T13:33:48.365Z,99023.38
2019-03-06T13:45:33.799Z,99062.29
2019-03-06T13:48:05.063Z,99059.20
2019-03-06T13:50:46.457Z,99057.75
2019-03-06T14:30:36.947Z,99182.11
2019-03-06T14:33:53.120Z,99201.58
2019-03-06T14:36:33.387Z,99202.58
2019-03-06T14:39:26.374Z,99215.48
2019-03-06T14:42:02.040Z,99218.58
2019-03-06T14:44:33.766Z,99224.61
2019-03-06T14:47:05.572Z,99225.11
2019-03-06T14:49:39.523Z,99229.43
2019-03-06T14:52:10.229Z,99248.70
2019-03-06T14:54:47.496Z,99252.13
2019-03-06T14:57:19.979Z,99256.80
2019-03-06T14:59:50.686Z,99255.56
2019-03-06T15:02:24.260Z,99260.27
2019-03-06T15:07:48.546Z,99270.55
2019-03-06T15:10:21.725Z,99291.05
2019-03-06T15:12:54.038Z,99301.73
2019-03-06T15:15:28.815Z,99303.02
2019-03-06T15:18:10.140Z,99321.36
2019-03-06T15:20:47.220Z,99315.40
2019-03-06T15:23:18.595Z,99319.27
2019-03-06T15:28:56.865Z,99332.50
2019-03-06T15:31:46.464Z,99347.00
2019-03-06T15:37:24.941Z,99346.14
2019-03-06T15:39:56.692Z,99358.53
2019-03-06T15:42:27.207Z,99366.62
2019-03-06T15:44:58.457Z,99370.91
2019-03-06T15:47:33.592Z,99384.11
2019-03-06T15:50:01.876Z,99389.25
2019-03-06T15:52:32.641Z,99390.50
2019-03-06T15:55:03.313Z,99395.64
2019-03-06T15:57:34.839Z,99401.63
2019-03-06T16:00:13.005Z,99417.38
2019-03-06T16:02:44.342Z,99418.21
2019-03-06T16:05:16.498Z,99426.34
2019-03-06T16:07:47.877Z,99433.15
2019-03-06T16:10:20.182Z,99447.66
2019-03-06T16:12:50.897Z,99447.65
2019-03-06T16:15:21.685Z,99463.43
2019-03-06T16:17:52.495Z,99469.83
2019-03-06T16:20:23.416Z,99463.43
2019-03-06T16:22:54.407Z,99474.97
2019-03-06T16:25:36.400Z,99486.44
2019-03-06T16:28:00.041Z,99485.61
2019-03-06T16:30:31.025Z,99492.84
2019-03-06T16:33:12.935Z,99503.88
2019-03-06T16:35:46.060Z,99502.59
2019-03-06T16:38:16.909Z,99508.13
2019-03-06T16:40:49.873Z,99508.09
2019-03-06T16:43:21.879Z,99522.16
2019-03-06T16:45:53.203Z,99526.83
2019-03-06T16:48:24.338Z,99526.02
2019-03-06T16:50:54.976Z,99534.96
2019-03-06T16:53:25.634Z,99536.25
2019-03-06T16:55:56.068Z,99542.25
2019-03-06T16:58:26.741Z,99546.09
2019-03-06T17:00:57.833Z,99552.05
2019-03-06T17:03:28.464Z,99560.98
2019-03-06T17:05:59.687Z,99560.53
2019-03-06T17:08:36.184Z,99563.05
2019-03-06T17:11:11.085Z,99579.24
2019-03-06T17:13:42.530Z,99575.83
2019-03-06T17:16:20.311Z,99580.54
2019-03-06T17:19:03.423Z,99583.09
2019-03-06T17:21:46.957Z,99586.46
2019-03-06T17:24:20.183Z,99592.00
2019-03-06T17:26:51.491Z,99594.55
2019-03-06T17:29:22.734Z,99598.40
2019-03-06T17:31:54.377Z,99598.78
2019-03-06T17:34:25.363Z,99605.59
2019-03-06T17:36:56.635Z,99611.55
2019-03-06T17:39:27.506Z,99617.52
2019-03-06T17:41:58.168Z,99617.48
2019-03-06T17:44:28.929Z,99615.39
2019-03-06T17:46:59.766Z,99617.11
2019-03-06T17:49:37.056Z,99619.66
2019-03-06T17:55:14.135Z,99633.74
2019-03-06T17:57:59.059Z,99638.42
2019-03-06T18:07:12.210Z,99650.71
2019-03-06T18:09:50.627Z,99655.83
2019-03-06T18:12:37.188Z,99657.09
2019-03-06T18:15:18.256Z,99661.31
2019-03-06T18:18:10.084Z,99673.64
2019-03-06T18:23:57.874Z,99667.70
2019-03-06T18:26:28.470Z,99678.80
2019-03-06T18:28:59.771Z,99684.77
2019-03-06T18:31:30.767Z,99692.45
2019-03-06T18:34:03.914Z,99685.61
2019-03-06T18:36:34.622Z,99699.22
2019-03-06T18:39:13.082Z,99705.59
2019-03-06T18:41:44.241Z,99714.89
2019-03-06T18:44:19.714Z,99710.16
2019-03-06T18:46:52.866Z,99716.97
2019-03-06T18:49:24.557Z,99724.17
2019-03-06T18:51:55.829Z,99722.48
2019-03-06T18:54:25.845Z,99728.75
2019-03-06T18:56:56.785Z,99731.68
2019-03-06T18:59:29.791Z,99731.25
2019-03-06T19:02:00.157Z,99745.75
2019-03-06T19:04:31.507Z,99733.02
2019-03-06T19:07:01.855Z,99737.22
2019-03-06T19:09:33.205Z,99727.84
2019-03-06T19:12:05.045Z,99733.41
2019-03-06T19:14:37.816Z,99728.72
2019-03-06T19:17:40.604Z,99737.70
2019-03-06T19:26:43.594Z,99750.34
2019-03-06T19:29:18.119Z,99756.38
2019-03-06T19:31:48.768Z,99752.89
2019-03-06T19:34:19.912Z,99755.36
2019-03-06T19:36:51.365Z,99760.02
2019-03-06T19:39:24.979Z,99762.22
2019-03-06T19:41:59.656Z,99775.02
2019-03-06T19:44:37.037Z,99774.52
2019-03-06T19:47:09.765Z,99781.32
2019-03-06T19:49:45.832Z,99783.05
2019-03-06T19:52:17.848Z,99792.47
2019-03-06T19:54:51.122Z,99795.07
2019-03-06T19:57:21.528Z,99792.52
2019-03-06T19:59:52.220Z,99798.42
2019-03-06T20:02:23.516Z,99801.78
2019-03-06T20:04:54.331Z,99805.99
2019-03-06T20:07:26.479Z,99808.95
2019-03-06T20:09:57.822Z,99813.17
2019-03-06T20:12:30.267Z,99819.52
2019-03-06T20:15:14.160Z,99827.98
2019-03-06T20:17:46.789Z,99828.33
2019-03-06T20:20:28.291Z,99836.44
2019-03-06T20:23:06.337Z,99833.86
2019-03-06T20:25:40.973Z,99840.63
2019-03-06T20:28:16.142Z,99844.84
2019-03-06T20:30:46.750Z,99850.73
2019-03-06T20:33:18.105Z,99853.67
2019-03-06T20:35:49.796Z,99859.21
2019-03-06T20:38:20.546Z,99864.37
2019-03-06T20:40:51.603Z,99869.89
2019-03-06T20:43:22.194Z,99876.65
2019-03-06T20:45:53.523Z,99884.25
2019-03-06T20:48:25.270Z,99878.71
2019-03-06T20:50:56.073Z,99887.70
2019-03-06T20:53:26.713Z,99891.97
2019-03-06T20:55:58.358Z,99889.85
2019-03-06T20:58:28.702Z,99899.63
2019-03-06T21:01:00.020Z,99907.28
2019-03-06T21:03:31.099Z,99911.55
2019-03-06T21:06:02.117Z,99918.40
2019-03-06T21:08:33.113Z,99926.00
2019-03-06T21:11:07.299Z,99932.77
2019-03-06T21:13:37.944Z,99934.47
2019-03-06T21:16:08.459Z,99934.88
2019-03-06T21:18:43.543Z,99936.91
2019-03-06T21:21:16.276Z,99938.53
2019-03-06T21:23:48.287Z,99938.48
2019-03-06T21:30:14.167Z,99955.30
2019-03-06T21:32:44.424Z,99960.38
2019-03-06T21:35:15.295Z,99957.34
2019-03-06T21:37:48.089Z,99957.65
2019-03-06T21:40:18.423Z,99954.22
2019-03-06T21:42:48.713Z,99956.72
2019-03-06T21:45:20.203Z,99958.34
2019-03-06T21:47:51.090Z,99960.02
2019-03-06T21:50:21.802Z,99962.58
2019-03-06T21:52:52.401Z,99962.63
2019-03-06T21:55:22.528Z,99959.70
2019-03-06T21:57:54.233Z,99967.34
2019-03-06T22:00:25.650Z,99978.35
2019-03-06T22:02:57.002Z,99987.19
2019-03-06T22:05:28.711Z,100000.79
2019-03-06T22:07:59.651Z,99998.23
2019-03-06T22:10:30.558Z,99997.36
2019-03-06T22:13:01.029Z,99997.73
2019-03-06T22:15:31.318Z,99998.05
2019-03-06T22:18:01.337Z,99995.02
2019-03-06T22:20:32.155Z,100006.80
2019-03-06T22:23:02.793Z,100013.95
2019-03-06T22:25:33.166Z,100013.89
2019-03-06T22:28:04.085Z,100019.80
2019-03-06T22:30:35.497Z,100015.02
2019-03-06T22:33:06.355Z,100017.10
2019-03-06T22:35:36.625Z,100016.59
2019-03-06T22:38:07.073Z,100022.50
2019-03-06T22:40:37.406Z,100026.76
2019-03-06T22:43:08.228Z,100032.23
2019-03-06T22:45:39.338Z,100036.45
2019-03-06T22:48:10.029Z,100041.88
2019-03-06T22:50:41.399Z,100051.61
2019-03-06T22:53:12.163Z,100046.06
2019-03-06T22:55:44.309Z,100054.63
2019-03-06T22:58:14.606Z,100054.70
2019-03-06T23:01:14.440Z,100055.14
2019-03-06T23:03:45.100Z,100061.95
2019-03-06T23:06:16.066Z,100067.48
2019-03-06T23:08:46.618Z,100064.50
2019-03-06T23:11:17.603Z,100067.05
2019-03-06T23:13:48.767Z,100069.89
2019-03-06T23:16:20.626Z,100066.83
2019-03-06T23:18:51.639Z,100071.92
2019-03-06T23:21:22.237Z,100072.73
2019-03-06T23:23:52.674Z,100069.30
2019-03-06T23:26:23.665Z,100076.08
2019-03-06T23:28:53.963Z,100077.74
2019-03-06T23:31:24.468Z,100079.81
2019-03-06T23:33:54.643Z,100077.19
2019-03-06T23:36:25.071Z,100086.08
2019-03-06T23:38:57.965Z,100090.77
2019-03-06T23:41:27.946Z,100079.27
2019-03-06T23:43:57.864Z,100085.16
2019-03-06T23:46:29.199Z,100087.67
2019-03-06T23:48:59.333Z,100092.65
2019-03-06T23:51:34.232Z,100096.44
2019-03-06T23:54:04.124Z,100102.01
2019-03-06T23:56:34.628Z,100106.34
2019-03-06T23:59:04.793Z,100110.61
